sensor_id;sensor_type;location;lat;lon;timestamp;P1;durP1;ratioP1;P2;durP2;ratioP2
64498;SDS011;51087;55.718;21.122;2022-08-25T00:00:32;14.38;;;5.10;;
64498;SDS011;51087;55.718;21.122;2022-08-25T00:02:58;16.63;;;5.00;;
64498;SDS011;51087;55.718;21.122;2022-08-25T00:05:24;17.42;;;5.90;;
64498;SDS011;51087;55.718;21.122;2022-08-25T00:07:52;15.65;;;5.07;;
64498;SDS011;51087;55.718;21.122;2022-08-25T00:10:17;10.75;;;4.93;;
64498;SDS011;51087;55.718;21.122;2022-08-25T00:12:44;14.68;;;5.25;;
64498;SDS011;51087;55.718;21.122;2022-08-25T00:15:10;19.10;;;5.00;;
64498;SDS011;51087;55.718;21.122;2022-08-25T00:17:36;14.95;;;4.65;;
64498;SDS011;51087;55.718;21.122;2022-08-25T00:20:02;15.98;;;5.05;;
64498;SDS011;51087;55.718;21.122;2022-08-25T00:22:28;17.15;;;5.40;;
64498;SDS011;51087;55.718;21.122;2022-08-25T00:24:54;17.00;;;5.43;;
64498;SDS011;51087;55.718;21.122;2022-08-25T00:27:19;16.13;;;4.72;;
64498;SDS011;51087;55.718;21.122;2022-08-25T00:29:45;19.42;;;5.50;;
64498;SDS011;51087;55.718;21.122;2022-08-25T00:32:11;20.90;;;5.18;;
64498;SDS011;51087;55.718;21.122;2022-08-25T00:34:37;12.90;;;4.95;;
64498;SDS011;51087;55.718;21.122;2022-08-25T00:37:04;12.13;;;4.82;;
64498;SDS011;51087;55.718;21.122;2022-08-25T00:39:33;15.55;;;4.68;;
64498;SDS011;51087;55.718;21.122;2022-08-25T00:41:59;17.20;;;4.75;;
64498;SDS011;51087;55.718;21.122;2022-08-25T00:44:25;14.63;;;4.97;;
64498;SDS011;51087;55.718;21.122;2022-08-25T00:46:54;13.10;;;4.57;;
64498;SDS011;51087;55.718;21.122;2022-08-25T00:49:30;9.07;;;4.30;;
64498;SDS011;51087;55.718;21.122;2022-08-25T00:57:11;14.93;;;4.90;;
64498;SDS011;51087;55.718;21.122;2022-08-25T00:59:39;11.38;;;4.10;;
64498;SDS011;51087;55.718;21.122;2022-08-25T01:02:06;18.80;;;4.55;;
64498;SDS011;51087;55.718;21.122;2022-08-25T01:04:31;13.73;;;4.53;;
64498;SDS011;51087;55.718;21.122;2022-08-25T01:06:58;13.65;;;4.38;;
64498;SDS011;51087;55.718;21.122;2022-08-25T01:09:24;12.27;;;4.63;;
64498;SDS011;51087;55.718;21.122;2022-08-25T01:11:52;17.00;;;3.83;;
64498;SDS011;51087;55.718;21.122;2022-08-25T01:14:18;15.00;;;4.30;;
64498;SDS011;51087;55.718;21.122;2022-08-25T01:16:45;17.83;;;3.92;;
64498;SDS011;51087;55.718;21.122;2022-08-25T01:19:12;18.98;;;4.15;;
64498;SDS011;51087;55.718;21.122;2022-08-25T01:21:41;15.00;;;4.25;;
64498;SDS011;51087;55.718;21.122;2022-08-25T01:24:08;17.52;;;4.03;;
64498;SDS011;51087;55.718;21.122;2022-08-25T01:26:48;8.63;;;3.97;;
64498;SDS011;51087;55.718;21.122;2022-08-25T01:29:14;11.52;;;3.85;;
64498;SDS011;51087;55.718;21.122;2022-08-25T01:31:46;10.20;;;3.92;;
64498;SDS011;51087;55.718;21.122;2022-08-25T01:34:12;15.27;;;4.20;;
64498;SDS011;51087;55.718;21.122;2022-08-25T01:36:40;11.10;;;3.70;;
64498;SDS011;51087;55.718;21.122;2022-08-25T01:39:07;7.32;;;3.75;;
64498;SDS011;51087;55.718;21.122;2022-08-25T01:41:39;11.10;;;4.40;;
64498;SDS011;51087;55.718;21.122;2022-08-25T01:44:14;13.27;;;3.90;;
64498;SDS011;51087;55.718;21.122;2022-08-25T01:46:40;15.85;;;3.92;;
64498;SDS011;51087;55.718;21.122;2022-08-25T01:49:06;7.70;;;3.63;;
64498;SDS011;51087;55.718;21.122;2022-08-25T01:51:34;9.07;;;3.78;;
64498;SDS011;51087;55.718;21.122;2022-08-25T01:54:06;8.05;;;3.75;;
64498;SDS011;51087;55.718;21.122;2022-08-25T01:56:32;15.05;;;4.00;;
64498;SDS011;51087;55.718;21.122;2022-08-25T01:58:57;12.63;;;4.32;;
64498;SDS011;51087;55.718;21.122;2022-08-25T02:01:23;8.23;;;3.58;;
64498;SDS011;51087;55.718;21.122;2022-08-25T02:03:49;10.90;;;3.80;;
64498;SDS011;51087;55.718;21.122;2022-08-25T02:06:19;11.23;;;3.53;;
64498;SDS011;51087;55.718;21.122;2022-08-25T02:08:56;12.60;;;3.72;;
64498;SDS011;51087;55.718;21.122;2022-08-25T02:11:25;11.50;;;4.13;;
64498;SDS011;51087;55.718;21.122;2022-08-25T02:13:51;10.93;;;4.22;;
64498;SDS011;51087;55.718;21.122;2022-08-25T02:16:18;11.55;;;4.40;;
64498;SDS011;51087;55.718;21.122;2022-08-25T02:18:49;14.85;;;4.07;;
64498;SDS011;51087;55.718;21.122;2022-08-25T02:21:14;16.40;;;4.05;;
64498;SDS011;51087;55.718;21.122;2022-08-25T02:23:40;9.30;;;3.85;;
64498;SDS011;51087;55.718;21.122;2022-08-25T02:26:07;14.05;;;3.67;;
64498;SDS011;51087;55.718;21.122;2022-08-25T02:28:33;8.50;;;3.78;;
64498;SDS011;51087;55.718;21.122;2022-08-25T02:30:59;12.73;;;4.90;;
64498;SDS011;51087;55.718;21.122;2022-08-25T02:33:25;9.20;;;3.67;;
64498;SDS011;51087;55.718;21.122;2022-08-25T02:35:51;10.55;;;3.85;;
64498;SDS011;51087;55.718;21.122;2022-08-25T02:38:16;8.63;;;3.75;;
64498;SDS011;51087;55.718;21.122;2022-08-25T02:40:42;17.38;;;4.30;;
64498;SDS011;51087;55.718;21.122;2022-08-25T02:43:08;12.77;;;4.00;;
64498;SDS011;51087;55.718;21.122;2022-08-25T02:45:33;12.77;;;3.90;;
64498;SDS011;51087;55.718;21.122;2022-08-25T02:48:00;11.38;;;4.57;;
64498;SDS011;51087;55.718;21.122;2022-08-25T02:50:25;14.50;;;4.30;;
64498;SDS011;51087;55.718;21.122;2022-08-25T02:52:51;11.75;;;4.28;;
64498;SDS011;51087;55.718;21.122;2022-08-25T02:55:16;15.18;;;4.47;;
64498;SDS011;51087;55.718;21.122;2022-08-25T02:57:43;12.23;;;4.60;;
64498;SDS011;51087;55.718;21.122;2022-08-25T03:00:09;9.57;;;4.57;;
64498;SDS011;51087;55.718;21.122;2022-08-25T03:02:37;13.07;;;4.75;;
64498;SDS011;51087;55.718;21.122;2022-08-25T03:05:03;13.15;;;5.40;;
64498;SDS011;51087;55.718;21.122;2022-08-25T03:07:29;13.82;;;5.45;;
64498;SDS011;51087;55.718;21.122;2022-08-25T03:09:54;11.80;;;5.78;;
64498;SDS011;51087;55.718;21.122;2022-08-25T03:12:20;20.52;;;6.78;;
64498;SDS011;51087;55.718;21.122;2022-08-25T03:14:46;18.67;;;6.28;;
64498;SDS011;51087;55.718;21.122;2022-08-25T03:17:12;21.15;;;7.00;;
64498;SDS011;51087;55.718;21.122;2022-08-25T03:19:38;20.75;;;7.40;;
64498;SDS011;51087;55.718;21.122;2022-08-25T03:22:03;16.95;;;7.57;;
64498;SDS011;51087;55.718;21.122;2022-08-25T03:24:29;22.05;;;7.55;;
64498;SDS011;51087;55.718;21.122;2022-08-25T03:26:55;21.98;;;7.72;;
64498;SDS011;51087;55.718;21.122;2022-08-25T03:29:22;20.50;;;8.65;;
64498;SDS011;51087;55.718;21.122;2022-08-25T03:31:49;22.23;;;8.13;;
64498;SDS011;51087;55.718;21.122;2022-08-25T03:34:16;21.65;;;9.45;;
64498;SDS011;51087;55.718;21.122;2022-08-25T03:36:44;27.08;;;9.63;;
64498;SDS011;51087;55.718;21.122;2022-08-25T03:39:13;23.83;;;9.27;;
64498;SDS011;51087;55.718;21.122;2022-08-25T03:41:39;23.80;;;9.57;;
64498;SDS011;51087;55.718;21.122;2022-08-25T03:44:05;23.08;;;9.70;;
64498;SDS011;51087;55.718;21.122;2022-08-25T03:46:36;23.85;;;9.25;;
64498;SDS011;51087;55.718;21.122;2022-08-25T03:49:05;29.27;;;12.45;;
64498;SDS011;51087;55.718;21.122;2022-08-25T03:51:44;27.15;;;10.15;;
64498;SDS011;51087;55.718;21.122;2022-08-25T03:54:18;22.85;;;8.35;;
64498;SDS011;51087;55.718;21.122;2022-08-25T03:56:45;22.80;;;7.90;;
64498;SDS011;51087;55.718;21.122;2022-08-25T03:59:11;22.90;;;8.93;;
64498;SDS011;51087;55.718;21.122;2022-08-25T04:01:37;24.95;;;8.40;;
64498;SDS011;51087;55.718;21.122;2022-08-25T04:04:04;20.50;;;7.97;;
64498;SDS011;51087;55.718;21.122;2022-08-25T04:06:31;25.35;;;8.10;;
64498;SDS011;51087;55.718;21.122;2022-08-25T04:08:56;17.38;;;7.53;;
64498;SDS011;51087;55.718;21.122;2022-08-25T04:11:23;28.52;;;7.95;;
64498;SDS011;51087;55.718;21.122;2022-08-25T04:13:49;22.95;;;7.55;;
64498;SDS011;51087;55.718;21.122;2022-08-25T04:16:20;22.77;;;8.05;;
64498;SDS011;51087;55.718;21.122;2022-08-25T04:18:47;24.38;;;7.85;;
64498;SDS011;51087;55.718;21.122;2022-08-25T04:21:14;24.10;;;8.05;;
64498;SDS011;51087;55.718;21.122;2022-08-25T04:23:41;18.35;;;8.05;;
64498;SDS011;51087;55.718;21.122;2022-08-25T04:26:09;24.90;;;8.93;;
64498;SDS011;51087;55.718;21.122;2022-08-25T04:28:37;29.90;;;8.23;;
64498;SDS011;51087;55.718;21.122;2022-08-25T04:31:09;22.50;;;7.78;;
64498;SDS011;51087;55.718;21.122;2022-08-25T04:36:03;22.67;;;7.78;;
64498;SDS011;51087;55.718;21.122;2022-08-25T04:38:30;25.42;;;7.97;;
64498;SDS011;51087;55.718;21.122;2022-08-25T04:40:57;23.95;;;7.55;;
64498;SDS011;51087;55.718;21.122;2022-08-25T04:43:23;23.17;;;7.43;;
64498;SDS011;51087;55.718;21.122;2022-08-25T04:45:48;19.58;;;7.15;;
64498;SDS011;51087;55.718;21.122;2022-08-25T04:48:14;20.92;;;6.88;;
64498;SDS011;51087;55.718;21.122;2022-08-25T04:50:39;21.73;;;6.85;;
64498;SDS011;51087;55.718;21.122;2022-08-25T04:53:05;22.65;;;6.75;;
64498;SDS011;51087;55.718;21.122;2022-08-25T04:55:30;17.05;;;6.15;;
64498;SDS011;51087;55.718;21.122;2022-08-25T04:57:56;18.10;;;6.43;;
64498;SDS011;51087;55.718;21.122;2022-08-25T05:00:21;18.27;;;6.53;;
64498;SDS011;51087;55.718;21.122;2022-08-25T05:02:47;23.73;;;7.13;;
64498;SDS011;51087;55.718;21.122;2022-08-25T05:05:12;18.52;;;6.13;;
64498;SDS011;51087;55.718;21.122;2022-08-25T05:07:38;22.73;;;6.15;;
64498;SDS011;51087;55.718;21.122;2022-08-25T05:10:03;26.55;;;5.28;;
64498;SDS011;51087;55.718;21.122;2022-08-25T05:12:29;18.95;;;5.63;;
64498;SDS011;51087;55.718;21.122;2022-08-25T05:14:55;18.70;;;5.85;;
64498;SDS011;51087;55.718;21.122;2022-08-25T05:17:40;21.27;;;5.90;;
64498;SDS011;51087;55.718;21.122;2022-08-25T05:20:06;18.48;;;5.25;;
64498;SDS011;51087;55.718;21.122;2022-08-25T05:22:32;19.48;;;5.20;;
64498;SDS011;51087;55.718;21.122;2022-08-25T05:24:57;23.83;;;5.50;;
64498;SDS011;51087;55.718;21.122;2022-08-25T05:27:23;20.05;;;5.18;;
64498;SDS011;51087;55.718;21.122;2022-08-25T05:29:49;22.27;;;5.50;;
64498;SDS011;51087;55.718;21.122;2022-08-25T05:32:14;24.55;;;5.40;;
64498;SDS011;51087;55.718;21.122;2022-08-25T05:34:40;24.50;;;5.43;;
64498;SDS011;51087;55.718;21.122;2022-08-25T05:37:05;18.20;;;5.13;;
64498;SDS011;51087;55.718;21.122;2022-08-25T05:39:31;20.25;;;5.28;;
64498;SDS011;51087;55.718;21.122;2022-08-25T05:41:57;19.70;;;5.20;;
64498;SDS011;51087;55.718;21.122;2022-08-25T05:44:23;24.95;;;5.15;;
64498;SDS011;51087;55.718;21.122;2022-08-25T05:46:48;27.20;;;5.47;;
64498;SDS011;51087;55.718;21.122;2022-08-25T05:49:15;19.83;;;5.43;;
64498;SDS011;51087;55.718;21.122;2022-08-25T05:51:40;23.42;;;6.13;;
64498;SDS011;51087;55.718;21.122;2022-08-25T05:54:06;30.08;;;6.13;;
64498;SDS011;51087;55.718;21.122;2022-08-25T05:56:31;23.45;;;5.25;;
64498;SDS011;51087;55.718;21.122;2022-08-25T05:58:57;26.92;;;5.60;;
64498;SDS011;51087;55.718;21.122;2022-08-25T06:01:24;24.45;;;5.53;;
64498;SDS011;51087;55.718;21.122;2022-08-25T06:04:10;24.52;;;5.47;;
64498;SDS011;51087;55.718;21.122;2022-08-25T06:06:37;16.83;;;5.28;;
64498;SDS011;51087;55.718;21.122;2022-08-25T06:09:02;25.60;;;5.55;;
64498;SDS011;51087;55.718;21.122;2022-08-25T06:11:30;27.40;;;5.53;;
64498;SDS011;51087;55.718;21.122;2022-08-25T06:13:55;24.23;;;5.32;;
64498;SDS011;51087;55.718;21.122;2022-08-25T06:16:21;26.52;;;5.15;;
64498;SDS011;51087;55.718;21.122;2022-08-25T06:18:46;27.10;;;5.15;;
64498;SDS011;51087;55.718;21.122;2022-08-25T06:21:13;15.60;;;5.10;;
64498;SDS011;51087;55.718;21.122;2022-08-25T06:23:39;22.33;;;4.72;;
64498;SDS011;51087;55.718;21.122;2022-08-25T06:26:05;22.25;;;5.13;;
64498;SDS011;51087;55.718;21.122;2022-08-25T06:28:33;30.52;;;5.88;;
64498;SDS011;51087;55.718;21.122;2022-08-25T06:30:59;21.02;;;5.30;;
64498;SDS011;51087;55.718;21.122;2022-08-25T06:33:26;24.33;;;5.60;;
64498;SDS011;51087;55.718;21.122;2022-08-25T06:35:55;23.77;;;5.97;;
64498;SDS011;51087;55.718;21.122;2022-08-25T06:38:21;22.00;;;5.30;;
64498;SDS011;51087;55.718;21.122;2022-08-25T06:40:47;29.15;;;5.90;;
64498;SDS011;51087;55.718;21.122;2022-08-25T06:43:12;25.27;;;5.85;;
64498;SDS011;51087;55.718;21.122;2022-08-25T06:45:39;36.30;;;5.88;;
64498;SDS011;51087;55.718;21.122;2022-08-25T06:48:05;29.63;;;5.25;;
64498;SDS011;51087;55.718;21.122;2022-08-25T06:50:30;24.67;;;6.40;;
64498;SDS011;51087;55.718;21.122;2022-08-25T06:52:56;25.15;;;5.97;;
64498;SDS011;51087;55.718;21.122;2022-08-25T06:55:21;23.05;;;5.85;;
64498;SDS011;51087;55.718;21.122;2022-08-25T06:57:47;25.15;;;5.47;;
64498;SDS011;51087;55.718;21.122;2022-08-25T07:00:12;29.77;;;5.82;;
64498;SDS011;51087;55.718;21.122;2022-08-25T07:02:38;18.95;;;5.25;;
64498;SDS011;51087;55.718;21.122;2022-08-25T07:05:04;20.08;;;5.68;;
64498;SDS011;51087;55.718;21.122;2022-08-25T07:07:30;27.55;;;5.57;;
64498;SDS011;51087;55.718;21.122;2022-08-25T07:09:56;16.70;;;5.43;;
64498;SDS011;51087;55.718;21.122;2022-08-25T07:12:22;24.05;;;5.60;;
64498;SDS011;51087;55.718;21.122;2022-08-25T07:14:48;26.25;;;5.80;;
64498;SDS011;51087;55.718;21.122;2022-08-25T07:17:14;23.92;;;5.60;;
64498;SDS011;51087;55.718;21.122;2022-08-25T07:19:41;16.08;;;5.53;;
64498;SDS011;51087;55.718;21.122;2022-08-25T07:22:06;22.33;;;5.30;;
64498;SDS011;51087;55.718;21.122;2022-08-25T07:24:32;26.27;;;6.22;;
64498;SDS011;51087;55.718;21.122;2022-08-25T07:26:57;25.60;;;5.30;;
64498;SDS011;51087;55.718;21.122;2022-08-25T07:29:24;25.15;;;4.70;;
64498;SDS011;51087;55.718;21.122;2022-08-25T07:31:52;25.90;;;5.85;;
64498;SDS011;51087;55.718;21.122;2022-08-25T07:34:18;24.27;;;5.28;;
64498;SDS011;51087;55.718;21.122;2022-08-25T07:37:02;24.00;;;5.50;;
64498;SDS011;51087;55.718;21.122;2022-08-25T07:39:28;19.75;;;5.68;;
64498;SDS011;51087;55.718;21.122;2022-08-25T07:41:54;20.92;;;5.35;;
64498;SDS011;51087;55.718;21.122;2022-08-25T07:44:20;23.67;;;5.55;;
64498;SDS011;51087;55.718;21.122;2022-08-25T07:46:47;24.13;;;5.72;;
64498;SDS011;51087;55.718;21.122;2022-08-25T07:49:13;32.40;;;5.53;;
64498;SDS011;51087;55.718;21.122;2022-08-25T07:51:39;26.17;;;5.32;;
64498;SDS011;51087;55.718;21.122;2022-08-25T07:54:04;22.42;;;5.32;;
64498;SDS011;51087;55.718;21.122;2022-08-25T07:56:30;29.33;;;5.35;;
64498;SDS011;51087;55.718;21.122;2022-08-25T07:58:55;23.08;;;5.35;;
64498;SDS011;51087;55.718;21.122;2022-08-25T08:01:21;28.02;;;5.90;;
64498;SDS011;51087;55.718;21.122;2022-08-25T08:03:48;25.17;;;5.93;;
64498;SDS011;51087;55.718;21.122;2022-08-25T08:06:16;25.40;;;5.65;;
64498;SDS011;51087;55.718;21.122;2022-08-25T08:08:44;22.45;;;5.40;;
64498;SDS011;51087;55.718;21.122;2022-08-25T08:11:34;24.05;;;5.10;;
64498;SDS011;51087;55.718;21.122;2022-08-25T08:14:04;19.17;;;5.70;;
64498;SDS011;51087;55.718;21.122;2022-08-25T08:16:31;21.77;;;5.35;;
64498;SDS011;51087;55.718;21.122;2022-08-25T08:18:57;24.30;;;5.18;;
64498;SDS011;51087;55.718;21.122;2022-08-25T08:21:25;28.00;;;5.43;;
64498;SDS011;51087;55.718;21.122;2022-08-25T08:23:53;23.70;;;5.30;;
64498;SDS011;51087;55.718;21.122;2022-08-25T08:26:19;21.80;;;4.97;;
64498;SDS011;51087;55.718;21.122;2022-08-25T08:28:45;21.85;;;5.05;;
64498;SDS011;51087;55.718;21.122;2022-08-25T08:31:11;17.60;;;5.35;;
64498;SDS011;51087;55.718;21.122;2022-08-25T08:33:37;26.00;;;5.50;;
64498;SDS011;51087;55.718;21.122;2022-08-25T08:36:04;22.08;;;4.88;;
64498;SDS011;51087;55.718;21.122;2022-08-25T08:38:32;22.23;;;5.03;;
64498;SDS011;51087;55.718;21.122;2022-08-25T08:41:02;25.02;;;5.35;;
64498;SDS011;51087;55.718;21.122;2022-08-25T08:46:48;30.52;;;4.90;;
64498;SDS011;51087;55.718;21.122;2022-08-25T08:49:24;19.30;;;4.85;;
64498;SDS011;51087;55.718;21.122;2022-08-25T08:51:59;28.30;;;5.78;;
64498;SDS011;51087;55.718;21.122;2022-08-25T08:54:25;20.70;;;4.50;;
64498;SDS011;51087;55.718;21.122;2022-08-25T08:56:57;26.73;;;4.70;;
64498;SDS011;51087;55.718;21.122;2022-08-25T08:59:33;31.33;;;5.05;;
64498;SDS011;51087;55.718;21.122;2022-08-25T09:02:05;22.10;;;4.88;;
64498;SDS011;51087;55.718;21.122;2022-08-25T09:04:45;26.45;;;4.88;;
64498;SDS011;51087;55.718;21.122;2022-08-25T09:07:15;26.80;;;4.72;;
64498;SDS011;51087;55.718;21.122;2022-08-25T09:09:45;26.13;;;4.80;;
64498;SDS011;51087;55.718;21.122;2022-08-25T09:12:11;21.23;;;4.32;;
64498;SDS011;51087;55.718;21.122;2022-08-25T09:25:36;20.63;;;4.53;;
64498;SDS011;51087;55.718;21.122;2022-08-25T09:31:16;25.23;;;4.15;;
64498;SDS011;51087;55.718;21.122;2022-08-25T09:33:48;30.75;;;5.05;;
64498;SDS011;51087;55.718;21.122;2022-08-25T09:36:19;19.52;;;4.40;;
64498;SDS011;51087;55.718;21.122;2022-08-25T09:38:45;26.83;;;4.00;;
64498;SDS011;51087;55.718;21.122;2022-08-25T09:41:10;24.63;;;4.30;;
64498;SDS011;51087;55.718;21.122;2022-08-25T09:43:41;26.45;;;5.03;;
64498;SDS011;51087;55.718;21.122;2022-08-25T09:48:48;25.23;;;4.70;;
64498;SDS011;51087;55.718;21.122;2022-08-25T09:51:31;21.23;;;4.55;;
64498;SDS011;51087;55.718;21.122;2022-08-25T09:53:59;16.63;;;4.45;;
64498;SDS011;51087;55.718;21.122;2022-08-25T09:56:29;17.70;;;4.13;;
64498;SDS011;51087;55.718;21.122;2022-08-25T10:06:52;19.77;;;4.30;;
64498;SDS011;51087;55.718;21.122;2022-08-25T10:09:22;22.85;;;4.00;;
64498;SDS011;51087;55.718;21.122;2022-08-25T10:11:53;19.02;;;3.85;;
64498;SDS011;51087;55.718;21.122;2022-08-25T10:14:28;25.65;;;4.13;;
64498;SDS011;51087;55.718;21.122;2022-08-25T10:19:38;24.10;;;4.25;;
64498;SDS011;51087;55.718;21.122;2022-08-25T10:22:05;34.08;;;4.70;;
64498;SDS011;51087;55.718;21.122;2022-08-25T10:24:34;33.05;;;4.15;;
64498;SDS011;51087;55.718;21.122;2022-08-25T10:27:08;20.70;;;4.00;;
64498;SDS011;51087;55.718;21.122;2022-08-25T10:35:38;30.77;;;5.13;;
64498;SDS011;51087;55.718;21.122;2022-08-25T10:43:53;27.67;;;4.20;;
64498;SDS011;51087;55.718;21.122;2022-08-25T10:49:11;29.15;;;4.60;;
64498;SDS011;51087;55.718;21.122;2022-08-25T11:00:06;22.92;;;4.65;;
64498;SDS011;51087;55.718;21.122;2022-08-25T11:02:49;29.25;;;5.07;;
64498;SDS011;51087;55.718;21.122;2022-08-25T11:05:39;31.35;;;4.72;;
64498;SDS011;51087;55.718;21.122;2022-08-25T11:13:07;33.33;;;5.28;;
64498;SDS011;51087;55.718;21.122;2022-08-25T11:15:44;26.75;;;4.55;;
64498;SDS011;51087;55.718;21.122;2022-08-25T11:18:25;29.35;;;4.90;;
64498;SDS011;51087;55.718;21.122;2022-08-25T11:21:01;28.65;;;5.30;;
64498;SDS011;51087;55.718;21.122;2022-08-25T11:23:37;24.92;;;5.15;;
64498;SDS011;51087;55.718;21.122;2022-08-25T11:26:12;33.42;;;5.13;;
64498;SDS011;51087;55.718;21.122;2022-08-25T11:28:48;27.77;;;5.15;;
64498;SDS011;51087;55.718;21.122;2022-08-25T11:31:20;39.72;;;5.57;;
64498;SDS011;51087;55.718;21.122;2022-08-25T11:33:49;35.28;;;5.45;;
64498;SDS011;51087;55.718;21.122;2022-08-25T11:36:23;32.25;;;5.28;;
64498;SDS011;51087;55.718;21.122;2022-08-25T11:50:04;32.97;;;5.10;;
64498;SDS011;51087;55.718;21.122;2022-08-25T11:52:52;26.55;;;5.47;;
64498;SDS011;51087;55.718;21.122;2022-08-25T11:55:28;27.95;;;5.00;;
64498;SDS011;51087;55.718;21.122;2022-08-25T11:58:22;26.67;;;5.10;;
64498;SDS011;51087;55.718;21.122;2022-08-25T12:00:53;30.43;;;4.97;;
64498;SDS011;51087;55.718;21.122;2022-08-25T12:09:14;35.78;;;5.53;;
64498;SDS011;51087;55.718;21.122;2022-08-25T12:14:09;27.42;;;5.28;;
64498;SDS011;51087;55.718;21.122;2022-08-25T12:16:58;41.35;;;5.28;;
64498;SDS011;51087;55.718;21.122;2022-08-25T12:27:08;30.08;;;5.20;;
64498;SDS011;51087;55.718;21.122;2022-08-25T12:37:57;24.95;;;4.97;;
64498;SDS011;51087;55.718;21.122;2022-08-25T12:43:12;27.25;;;5.20;;
64498;SDS011;51087;55.718;21.122;2022-08-25T12:45:53;27.20;;;5.10;;
64498;SDS011;51087;55.718;21.122;2022-08-25T12:49:01;34.90;;;5.43;;
64498;SDS011;51087;55.718;21.122;2022-08-25T12:57:04;40.17;;;6.03;;
64498;SDS011;51087;55.718;21.122;2022-08-25T12:59:48;35.38;;;5.07;;
64498;SDS011;51087;55.718;21.122;2022-08-25T13:02:35;40.42;;;5.72;;
64498;SDS011;51087;55.718;21.122;2022-08-25T13:08:35;28.70;;;5.22;;
64498;SDS011;51087;55.718;21.122;2022-08-25T13:13:57;27.25;;;5.30;;
64498;SDS011;51087;55.718;21.122;2022-08-25T13:16:28;46.28;;;5.35;;
64498;SDS011;51087;55.718;21.122;2022-08-25T13:18:55;33.67;;;5.60;;
64498;SDS011;51087;55.718;21.122;2022-08-25T13:21:34;31.33;;;5.75;;
64498;SDS011;51087;55.718;21.122;2022-08-25T13:24:00;24.02;;;5.15;;
64498;SDS011;51087;55.718;21.122;2022-08-25T13:26:34;29.60;;;5.75;;
64498;SDS011;51087;55.718;21.122;2022-08-25T13:31:32;28.98;;;5.25;;
64498;SDS011;51087;55.718;21.122;2022-08-25T13:34:00;28.02;;;5.32;;
64498;SDS011;51087;55.718;21.122;2022-08-25T13:36:28;23.15;;;5.45;;
64498;SDS011;51087;55.718;21.122;2022-08-25T13:39:16;36.10;;;5.88;;
64498;SDS011;51087;55.718;21.122;2022-08-25T13:41:44;30.45;;;5.70;;
64498;SDS011;51087;55.718;21.122;2022-08-25T13:44:11;32.60;;;5.90;;
64498;SDS011;51087;55.718;21.122;2022-08-25T13:46:38;28.05;;;5.65;;
64498;SDS011;51087;55.718;21.122;2022-08-25T13:49:04;29.00;;;5.65;;
64498;SDS011;51087;55.718;21.122;2022-08-25T13:51:31;23.83;;;5.30;;
64498;SDS011;51087;55.718;21.122;2022-08-25T13:54:00;33.65;;;5.53;;
64498;SDS011;51087;55.718;21.122;2022-08-25T13:56:29;19.45;;;5.35;;
64498;SDS011;51087;55.718;21.122;2022-08-25T13:58:58;23.55;;;5.32;;
64498;SDS011;51087;55.718;21.122;2022-08-25T14:01:27;26.35;;;5.40;;
64498;SDS011;51087;55.718;21.122;2022-08-25T14:06:46;27.67;;;5.68;;
64498;SDS011;51087;55.718;21.122;2022-08-25T14:09:13;26.00;;;6.13;;
64498;SDS011;51087;55.718;21.122;2022-08-25T14:11:46;31.55;;;6.88;;
64498;SDS011;51087;55.718;21.122;2022-08-25T14:19:44;31.25;;;6.50;;
64498;SDS011;51087;55.718;21.122;2022-08-25T14:22:11;27.25;;;6.13;;
64498;SDS011;51087;55.718;21.122;2022-08-25T14:24:38;32.20;;;6.10;;
64498;SDS011;51087;55.718;21.122;2022-08-25T14:27:04;27.77;;;6.07;;
64498;SDS011;51087;55.718;21.122;2022-08-25T14:29:29;25.15;;;6.88;;
64498;SDS011;51087;55.718;21.122;2022-08-25T14:31:56;28.83;;;6.63;;
64498;SDS011;51087;55.718;21.122;2022-08-25T14:34:24;37.78;;;7.85;;
64498;SDS011;51087;55.718;21.122;2022-08-25T14:36:56;28.75;;;6.20;;
64498;SDS011;51087;55.718;21.122;2022-08-25T14:39:24;26.10;;;5.65;;
64498;SDS011;51087;55.718;21.122;2022-08-25T14:41:50;29.52;;;6.07;;
64498;SDS011;51087;55.718;21.122;2022-08-25T14:44:16;33.97;;;6.32;;
64498;SDS011;51087;55.718;21.122;2022-08-25T14:46:49;18.45;;;5.00;;
64498;SDS011;51087;55.718;21.122;2022-08-25T14:49:18;27.42;;;5.55;;
64498;SDS011;51087;55.718;21.122;2022-08-25T14:51:47;28.05;;;5.57;;
64498;SDS011;51087;55.718;21.122;2022-08-25T14:54:13;29.60;;;6.25;;
64498;SDS011;51087;55.718;21.122;2022-08-25T14:56:42;27.73;;;5.05;;
64498;SDS011;51087;55.718;21.122;2022-08-25T14:59:16;30.92;;;5.75;;
64498;SDS011;51087;55.718;21.122;2022-08-25T15:01:45;35.13;;;6.82;;
64498;SDS011;51087;55.718;21.122;2022-08-25T15:04:15;25.52;;;5.35;;
64498;SDS011;51087;55.718;21.122;2022-08-25T15:06:46;27.42;;;5.95;;
64498;SDS011;51087;55.718;21.122;2022-08-25T15:09:18;30.17;;;6.05;;
64498;SDS011;51087;55.718;21.122;2022-08-25T15:11:48;28.27;;;5.85;;
64498;SDS011;51087;55.718;21.122;2022-08-25T15:14:19;25.98;;;5.43;;
64498;SDS011;51087;55.718;21.122;2022-08-25T15:16:55;29.77;;;5.95;;
64498;SDS011;51087;55.718;21.122;2022-08-25T15:19:22;22.20;;;6.13;;
64498;SDS011;51087;55.718;21.122;2022-08-25T15:21:51;37.28;;;6.20;;
64498;SDS011;51087;55.718;21.122;2022-08-25T15:24:17;32.70;;;6.47;;
64498;SDS011;51087;55.718;21.122;2022-08-25T15:29:23;21.80;;;5.85;;
64498;SDS011;51087;55.718;21.122;2022-08-25T15:31:51;22.67;;;6.55;;
64498;SDS011;51087;55.718;21.122;2022-08-25T15:34:17;27.88;;;6.50;;
64498;SDS011;51087;55.718;21.122;2022-08-25T15:36:43;27.67;;;6.57;;
64498;SDS011;51087;55.718;21.122;2022-08-25T15:39:08;20.35;;;6.18;;
64498;SDS011;51087;55.718;21.122;2022-08-25T15:41:34;27.17;;;6.10;;
64498;SDS011;51087;55.718;21.122;2022-08-25T15:44:01;29.88;;;6.90;;
64498;SDS011;51087;55.718;21.122;2022-08-25T15:46:28;30.02;;;6.70;;
64498;SDS011;51087;55.718;21.122;2022-08-25T15:48:55;28.45;;;6.82;;
64498;SDS011;51087;55.718;21.122;2022-08-25T15:51:23;31.38;;;6.78;;
64498;SDS011;51087;55.718;21.122;2022-08-25T15:53:50;23.00;;;6.13;;
64498;SDS011;51087;55.718;21.122;2022-08-25T15:56:15;22.77;;;6.32;;
64498;SDS011;51087;55.718;21.122;2022-08-25T15:58:43;31.90;;;6.35;;
64498;SDS011;51087;55.718;21.122;2022-08-25T16:01:11;34.35;;;6.30;;
64498;SDS011;51087;55.718;21.122;2022-08-25T16:03:38;26.20;;;6.07;;
64498;SDS011;51087;55.718;21.122;2022-08-25T16:06:03;30.15;;;5.75;;
64498;SDS011;51087;55.718;21.122;2022-08-25T16:08:29;22.65;;;6.20;;
64498;SDS011;51087;55.718;21.122;2022-08-25T16:10:54;20.50;;;6.72;;
64498;SDS011;51087;55.718;21.122;2022-08-25T16:13:20;24.90;;;6.03;;
64498;SDS011;51087;55.718;21.122;2022-08-25T16:15:47;26.73;;;6.32;;
64498;SDS011;51087;55.718;21.122;2022-08-25T16:18:13;22.55;;;5.95;;
64498;SDS011;51087;55.718;21.122;2022-08-25T16:20:41;24.88;;;6.53;;
64498;SDS011;51087;55.718;21.122;2022-08-25T16:23:08;27.88;;;6.72;;
64498;SDS011;51087;55.718;21.122;2022-08-25T16:25:37;24.35;;;5.60;;
64498;SDS011;51087;55.718;21.122;2022-08-25T16:28:04;28.25;;;5.70;;
64498;SDS011;51087;55.718;21.122;2022-08-25T16:30:29;24.23;;;6.25;;
64498;SDS011;51087;55.718;21.122;2022-08-25T16:32:55;27.75;;;6.35;;
64498;SDS011;51087;55.718;21.122;2022-08-25T16:35:20;26.98;;;6.00;;
64498;SDS011;51087;55.718;21.122;2022-08-25T16:37:46;22.95;;;6.05;;